Santa Rita, Arizona
Current Conditions -  °F | °C
As of 7:53 AM on Friday 19 Dec 2014 (Local Time) from KTUS Reporting Station
Clear Clear  
Wind Chill: 34°   Ceiling: Unl
Heat Index: 38°   Visibility: 10mi
Dew Point: 35°   Wind: 5mph
Humidity: 89%   Direction: 140°SE
Pressure: 30.23"   Gusts: NA
Location:  31.9353°N, 110.697°W
Report Text: KTUS 191453Z 14004KT 10SM CLR 03/02 A3023 RMK AO2 SLP230 T00330017 53014
Loading
Personal Weather Stations






























Interactive Weather Map New forecast layout! Learn more

10-Day Weather Forecast

Advertisements
Track Severe Weather on mobile